createdAt,value
2023-05-14T00:00:00.916Z,5.63
2023-05-14T00:02:30.262Z,4.72
2023-05-14T00:04:58.174Z,5.20
2023-05-14T00:07:30.713Z,5.60
2023-05-14T00:09:58.972Z,4.65
2023-05-14T00:12:26.810Z,4.20
2023-05-14T00:14:54.618Z,5.28
2023-05-14T00:17:22.400Z,5.00
2023-05-14T00:19:51.449Z,4.90
2023-05-14T00:22:19.259Z,4.75
2023-05-14T00:24:47.016Z,4.47
2023-05-14T00:27:14.841Z,4.70
2023-05-14T00:29:42.523Z,5.47
2023-05-14T00:32:10.304Z,4.70
2023-05-14T00:34:38.068Z,5.15
2023-05-14T00:37:07.307Z,5.75
2023-05-14T00:39:35.245Z,4.78
2023-05-14T00:42:03.208Z,5.13
2023-05-14T00:44:31.028Z,4.80
2023-05-14T00:47:00.028Z,5.05
2023-05-14T00:49:29.265Z,4.75
2023-05-14T00:51:59.056Z,4.60
2023-05-14T00:54:29.955Z,5.70
2023-05-14T00:56:58.674Z,4.95
2023-05-14T00:59:26.912Z,5.07
2023-05-14T01:01:55.555Z,4.65
2023-05-14T01:04:23.529Z,4.53
2023-05-14T01:06:58.875Z,4.75
2023-05-14T01:09:33.721Z,4.50
2023-05-14T01:12:08.770Z,4.28
2023-05-14T01:14:44.166Z,5.10
2023-05-14T01:17:13.259Z,4.68
2023-05-14T01:19:44.435Z,4.40
2023-05-14T01:22:14.477Z,3.80
2023-05-14T01:24:42.221Z,3.65
2023-05-14T01:27:17.691Z,4.00
2023-05-14T01:29:51.166Z,4.40
2023-05-14T01:32:23.163Z,4.75
2023-05-14T01:34:53.157Z,4.93
2023-05-14T01:37:23.702Z,3.88
2023-05-14T01:39:52.934Z,4.40
2023-05-14T01:42:21.080Z,3.97
2023-05-14T01:44:48.864Z,3.97
2023-05-14T01:47:19.383Z,4.30
2023-05-14T01:49:47.154Z,3.83
2023-05-14T01:52:14.919Z,4.55
2023-05-14T01:54:44.020Z,4.28
2023-05-14T01:57:11.785Z,4.40
2023-05-14T01:59:39.524Z,3.67
2023-05-14T02:02:07.416Z,4.75
2023-05-14T02:04:36.353Z,5.88
2023-05-14T02:07:04.910Z,5.50
2023-05-14T02:09:32.627Z,6.57
2023-05-14T02:12:01.762Z,6.75
2023-05-14T02:14:29.600Z,7.25
2023-05-14T02:16:57.726Z,6.78
2023-05-14T02:19:25.599Z,7.20
2023-05-14T02:21:53.420Z,6.93
2023-05-14T02:24:21.415Z,7.70
2023-05-14T02:26:49.217Z,7.40
2023-05-14T02:29:18.317Z,6.97
2023-05-14T02:31:46.242Z,6.68
2023-05-14T02:34:14.131Z,7.45
2023-05-14T02:36:42.200Z,6.97
2023-05-14T02:39:10.043Z,6.32
2023-05-14T02:41:37.867Z,7.45
2023-05-14T02:44:06.579Z,7.50
2023-05-14T02:46:36.242Z,6.07
2023-05-14T02:49:04.277Z,6.88
2023-05-14T02:51:32.337Z,6.57
2023-05-14T02:54:00.189Z,6.65
2023-05-14T02:56:27.915Z,7.15
2023-05-14T02:58:55.744Z,7.32
2023-05-14T03:01:24.202Z,7.35
2023-05-14T03:03:53.725Z,6.53
2023-05-14T03:06:21.641Z,7.28
2023-05-14T03:08:49.419Z,6.90
2023-05-14T03:11:17.167Z,6.82
2023-05-14T03:13:44.920Z,8.05
2023-05-14T03:16:12.631Z,6.22
2023-05-14T03:18:40.789Z,7.43
2023-05-14T03:21:11.656Z,7.05
2023-05-14T03:23:39.578Z,7.05
2023-05-14T03:26:07.434Z,7.55
2023-05-14T03:28:35.352Z,7.30
2023-05-14T03:31:03.276Z,7.65
2023-05-14T03:33:31.453Z,7.65
2023-05-14T03:35:59.251Z,8.23
2023-05-14T03:38:28.547Z,7.60
2023-05-14T03:40:56.562Z,8.45
2023-05-14T03:43:24.438Z,7.80
2023-05-14T03:45:53.121Z,8.77
2023-05-14T03:48:21.603Z,8.68
2023-05-14T03:50:49.632Z,8.82
2023-05-14T03:53:17.849Z,9.10
2023-05-14T03:55:48.501Z,8.82
2023-05-14T03:58:17.643Z,8.43
2023-05-14T04:00:45.608Z,7.03
2023-05-14T04:03:13.373Z,6.20
2023-05-14T04:05:41.331Z,6.43
2023-05-14T04:08:09.141Z,5.38
2023-05-14T04:10:36.881Z,6.72
2023-05-14T04:13:05.963Z,5.85
2023-05-14T04:15:39.208Z,5.65
2023-05-14T04:18:07.016Z,6.13
2023-05-14T04:20:34.905Z,5.00
2023-05-14T04:23:02.831Z,5.22
2023-05-14T04:25:30.763Z,4.22
2023-05-14T04:27:58.629Z,4.60
2023-05-14T04:30:27.831Z,4.47
2023-05-14T04:32:55.718Z,5.18
2023-05-14T04:35:25.026Z,4.75
2023-05-14T04:37:53.212Z,5.25
2023-05-14T04:40:22.855Z,5.30
2023-05-14T04:42:50.916Z,4.53
2023-05-14T04:45:18.807Z,4.47
2023-05-14T04:47:47.950Z,5.05
2023-05-14T04:50:16.483Z,4.45
2023-05-14T04:52:44.296Z,5.10
2023-05-14T04:55:12.060Z,4.30
2023-05-14T04:57:39.876Z,4.70
2023-05-14T05:00:10.002Z,4.78
2023-05-14T05:02:37.881Z,5.28
2023-05-14T05:05:07.558Z,5.13
2023-05-14T05:07:35.549Z,4.65
2023-05-14T05:10:03.420Z,4.90
2023-05-14T05:12:31.133Z,4.80
2023-05-14T05:14:58.955Z,5.25
2023-05-14T05:17:26.808Z,5.13
2023-05-14T05:19:54.500Z,5.03
2023-05-14T05:22:24.319Z,5.63
2023-05-14T05:24:52.105Z,5.00
2023-05-14T05:27:21.035Z,4.95
2023-05-14T05:29:48.769Z,5.90
2023-05-14T05:32:16.644Z,5.70
2023-05-14T05:34:44.627Z,6.65
2023-05-14T05:37:14.131Z,6.53
2023-05-14T05:39:43.264Z,6.57
2023-05-14T05:42:11.242Z,5.80
2023-05-14T05:44:39.038Z,5.82
2023-05-14T05:47:07.202Z,6.75
2023-05-14T05:49:36.869Z,6.07
2023-05-14T05:52:05.117Z,6.10
2023-05-14T05:54:33.340Z,5.28
2023-05-14T05:57:02.561Z,4.95
2023-05-14T05:59:30.611Z,5.15
2023-05-14T06:01:58.452Z,5.80
2023-05-14T06:04:26.280Z,4.85
2023-05-14T06:06:54.025Z,4.60
2023-05-14T06:09:21.807Z,5.50
2023-05-14T06:11:49.702Z,5.20
2023-05-14T06:14:18.905Z,5.10
2023-05-14T06:16:46.862Z,6.80
2023-05-14T06:19:14.824Z,5.32
2023-05-14T06:21:42.705Z,4.70
2023-05-14T06:24:10.893Z,5.00
2023-05-14T06:26:38.646Z,5.20
2023-05-14T06:29:06.595Z,5.13
2023-05-14T06:31:35.802Z,5.03
2023-05-14T06:34:03.680Z,4.53
2023-05-14T06:36:31.403Z,4.32
2023-05-14T06:38:59.126Z,4.18
2023-05-14T06:41:27.224Z,4.70
2023-05-14T06:43:55.521Z,4.68
2023-05-14T06:46:23.330Z,4.88
2023-05-14T06:48:52.455Z,4.53
2023-05-14T06:51:20.228Z,5.28
2023-05-14T06:53:48.856Z,5.30
2023-05-14T06:56:16.697Z,4.75
2023-05-14T06:58:44.380Z,5.72
2023-05-14T07:01:12.098Z,4.65
2023-05-14T07:03:39.918Z,5.07
2023-05-14T07:06:09.940Z,5.10
2023-05-14T07:08:38.967Z,4.95
2023-05-14T07:11:06.757Z,5.57
2023-05-14T07:13:34.659Z,4.85
2023-05-14T07:16:02.469Z,5.30
2023-05-14T07:18:31.275Z,5.97
2023-05-14T07:20:59.143Z,5.85
2023-05-14T07:23:28.440Z,6.03
2023-05-14T07:25:56.521Z,5.53
2023-05-14T07:28:24.372Z,5.28
2023-05-14T07:30:52.407Z,6.38
2023-05-14T07:33:20.337Z,7.07
2023-05-14T07:35:48.127Z,5.93
2023-05-14T07:38:16.397Z,5.25
2023-05-14T07:40:45.536Z,5.88
2023-05-14T07:43:13.333Z,5.57
2023-05-14T07:45:41.332Z,5.68
2023-05-14T07:48:09.312Z,5.13
2023-05-14T07:50:38.434Z,5.97
2023-05-14T07:53:06.215Z,5.22
2023-05-14T07:55:34.033Z,6.05
2023-05-14T07:58:03.193Z,5.68
2023-05-14T08:00:30.940Z,4.10
2023-05-14T08:02:58.852Z,5.13
2023-05-14T08:05:26.758Z,4.85
2023-05-14T08:07:54.591Z,5.47
2023-05-14T08:10:22.932Z,5.53
2023-05-14T08:12:50.914Z,5.70
2023-05-14T08:15:20.160Z,5.72
2023-05-14T08:17:48.288Z,5.93
2023-05-14T08:20:16.694Z,6.00
2023-05-14T08:22:44.518Z,5.72
2023-05-14T08:25:12.530Z,5.72
2023-05-14T08:27:40.343Z,5.75
2023-05-14T08:30:09.146Z,5.72
2023-05-14T08:32:39.413Z,5.13
2023-05-14T08:35:08.296Z,6.03
2023-05-14T08:37:36.063Z,5.55
2023-05-14T08:40:04.668Z,5.60
2023-05-14T08:42:33.345Z,6.10
2023-05-14T08:45:03.637Z,5.75
2023-05-14T08:47:32.431Z,5.90
2023-05-14T08:50:05.394Z,6.05
2023-05-14T08:52:35.024Z,5.03
2023-05-14T08:55:05.227Z,5.95
2023-05-14T08:57:34.218Z,5.95
2023-05-14T09:00:08.163Z,5.68
2023-05-14T09:02:37.718Z,5.93
2023-05-14T09:05:09.233Z,5.60
2023-05-14T09:07:37.239Z,5.47
2023-05-14T09:10:05.784Z,6.18
2023-05-14T09:12:33.936Z,5.95
2023-05-14T09:15:01.852Z,5.75
2023-05-14T09:17:29.838Z,6.07
2023-05-14T09:19:58.026Z,5.13
2023-05-14T09:22:32.351Z,5.43
2023-05-14T09:25:05.549Z,5.18
2023-05-14T09:27:34.271Z,5.63
2023-05-14T09:30:09.868Z,5.80
2023-05-14T09:32:39.080Z,6.85
2023-05-14T09:35:18.140Z,6.80
2023-05-14T09:37:48.645Z,6.28
2023-05-14T09:40:18.061Z,6.80
2023-05-14T09:42:46.505Z,5.95
2023-05-14T09:45:14.480Z,6.60
2023-05-14T09:47:42.531Z,6.88
2023-05-14T09:50:10.871Z,5.72
2023-05-14T09:52:39.531Z,5.78
2023-05-14T09:55:09.787Z,6.75
2023-05-14T09:57:37.755Z,6.18
2023-05-14T10:00:06.801Z,6.03
2023-05-14T10:02:38.853Z,6.82
2023-05-14T10:05:09.394Z,5.72
2023-05-14T10:07:42.096Z,6.03
2023-05-14T10:10:16.817Z,6.47
2023-05-14T10:12:50.602Z,6.43
2023-05-14T10:15:23.502Z,5.95
2023-05-14T10:17:57.365Z,6.55
2023-05-14T10:20:27.924Z,6.05
2023-05-14T10:22:56.603Z,6.00
2023-05-14T10:25:26.426Z,6.47
2023-05-14T10:27:55.072Z,6.50
2023-05-14T10:30:24.093Z,6.80
2023-05-14T10:33:07.910Z,6.80
2023-05-14T10:35:57.205Z,6.90
2023-05-14T10:38:28.108Z,7.63
2023-05-14T10:41:00.447Z,7.43
2023-05-14T10:43:30.793Z,7.05
2023-05-14T10:45:59.259Z,7.28
2023-05-14T10:48:27.560Z,7.65
2023-05-14T10:50:57.771Z,7.72
2023-05-14T10:53:35.663Z,6.88
2023-05-14T10:56:10.054Z,6.15
2023-05-14T10:58:39.159Z,6.40
2023-05-14T11:01:08.204Z,5.15
2023-05-14T11:03:42.675Z,5.38
2023-05-14T11:06:11.698Z,5.07
2023-05-14T11:08:40.487Z,6.25
2023-05-14T11:11:10.777Z,5.28
2023-05-14T11:13:39.424Z,5.00
2023-05-14T11:18:40.724Z,4.88
2023-05-14T11:21:08.660Z,4.97
2023-05-14T11:23:36.423Z,5.18
2023-05-14T11:26:04.437Z,5.43
2023-05-14T11:28:33.639Z,4.78
2023-05-14T11:31:01.514Z,5.50
2023-05-14T11:33:29.377Z,4.40
2023-05-14T11:35:57.129Z,5.85
2023-05-14T11:38:25.021Z,5.28
2023-05-14T11:40:54.121Z,4.90
2023-05-14T11:43:23.786Z,4.78
2023-05-14T11:45:54.925Z,5.38
2023-05-14T11:48:24.248Z,6.10
2023-05-14T11:50:53.652Z,6.10
2023-05-14T11:53:25.943Z,6.10
2023-05-14T11:55:55.296Z,6.45
2023-05-14T11:58:23.178Z,6.47
2023-05-14T12:00:53.351Z,5.97
2023-05-14T12:03:25.425Z,5.55
2023-05-14T12:05:58.184Z,4.97
2023-05-14T12:08:28.767Z,5.28
2023-05-14T12:10:57.084Z,4.30
2023-05-14T12:13:27.649Z,4.03
2023-05-14T12:15:58.321Z,4.50
2023-05-14T12:18:28.202Z,3.50
2023-05-14T12:20:56.739Z,3.17
2023-05-14T12:23:27.688Z,3.67
2023-05-14T12:25:55.619Z,3.83
2023-05-14T12:28:24.613Z,3.60
2023-05-14T12:30:59.057Z,4.13
2023-05-14T12:33:28.541Z,3.95
2023-05-14T12:36:09.953Z,3.35
2023-05-14T12:38:41.906Z,3.33
2023-05-14T12:41:09.689Z,3.45
2023-05-14T12:43:37.554Z,3.33
2023-05-14T12:46:06.852Z,3.55
2023-05-14T12:48:34.715Z,2.95
2023-05-14T12:51:02.573Z,3.20
2023-05-14T12:53:30.309Z,3.13
2023-05-14T12:55:58.059Z,2.90
2023-05-14T12:58:25.986Z,2.80
2023-05-14T13:00:53.801Z,3.13
2023-05-14T13:03:23.298Z,3.22
2023-05-14T13:05:51.995Z,2.72
2023-05-14T13:08:21.552Z,3.60
2023-05-14T13:10:49.534Z,2.70
2023-05-14T13:13:17.369Z,3.13
2023-05-14T13:15:46.741Z,4.03
2023-05-14T13:18:14.769Z,3.80
2023-05-14T13:20:43.892Z,5.05
2023-05-14T13:23:11.659Z,5.30
2023-05-14T13:25:39.865Z,4.68
2023-05-14T13:28:10.650Z,5.47
2023-05-14T13:30:39.322Z,5.43
2023-05-14T13:33:07.542Z,4.65
2023-05-14T13:35:35.598Z,6.00
2023-05-14T13:38:04.800Z,7.93
2023-05-14T13:40:32.617Z,7.25
2023-05-14T13:43:00.450Z,7.30
2023-05-14T13:45:28.329Z,8.10
2023-05-14T13:47:56.638Z,9.60
2023-05-14T13:50:24.494Z,9.73
2023-05-14T13:52:52.224Z,9.90
2023-05-14T13:55:21.412Z,8.45
2023-05-14T13:57:49.340Z,9.35
2023-05-14T14:00:17.852Z,9.32
2023-05-14T14:02:45.716Z,10.35
2023-05-14T14:05:13.488Z,9.68
2023-05-14T14:07:41.883Z,10.10
2023-05-14T14:10:10.944Z,9.98
2023-05-14T14:12:40.618Z,8.52
2023-05-14T14:15:09.421Z,9.48
2023-05-14T14:17:37.902Z,10.13
2023-05-14T14:20:08.130Z,9.82
2023-05-14T14:22:36.091Z,8.35
2023-05-14T14:25:04.113Z,10.43
2023-05-14T14:27:33.979Z,9.85
2023-05-14T14:30:05.147Z,9.43
2023-05-14T14:36:24.551Z,7.50
2023-05-14T14:39:31.837Z,8.13
2023-05-14T14:42:09.217Z,9.93
2023-05-14T14:45:21.325Z,11.30
2023-05-14T14:48:25.934Z,10.43
2023-05-14T14:50:54.219Z,9.65
2023-05-14T14:53:22.275Z,11.10
2023-05-14T14:55:50.190Z,11.30
2023-05-14T14:58:19.415Z,9.88
2023-05-14T15:00:47.675Z,10.38
2023-05-14T15:03:16.465Z,11.25
2023-05-14T15:05:46.047Z,11.02
2023-05-14T15:08:13.863Z,10.07
2023-05-14T15:10:41.969Z,11.40
2023-05-14T15:13:11.153Z,10.10
2023-05-14T15:15:39.364Z,12.38
2023-05-14T15:18:07.362Z,11.60
2023-05-14T15:20:35.232Z,11.38
2023-05-14T15:23:04.497Z,12.57
2023-05-14T15:25:32.305Z,12.43
2023-05-14T15:28:00.083Z,13.05
2023-05-14T15:30:27.995Z,14.45
2023-05-14T15:32:56.786Z,13.18
2023-05-14T15:35:25.180Z,13.95
2023-05-14T15:37:56.927Z,13.82
2023-05-14T15:40:27.926Z,14.13
2023-05-14T15:42:55.888Z,14.35
2023-05-14T15:45:23.842Z,13.75
2023-05-14T15:47:51.640Z,14.23
2023-05-14T15:50:20.766Z,12.40
2023-05-14T15:52:48.891Z,12.57
2023-05-14T15:55:20.157Z,13.55
2023-05-14T15:57:49.302Z,11.25
2023-05-14T16:00:18.151Z,12.82
2023-05-14T16:02:46.157Z,13.45
2023-05-14T16:05:14.870Z,13.77
2023-05-14T16:07:43.129Z,13.15
2023-05-14T16:10:11.558Z,12.05
2023-05-14T16:12:40.077Z,14.13
2023-05-14T16:15:10.496Z,15.50
2023-05-14T16:17:38.677Z,14.80
2023-05-14T16:20:07.417Z,19.20
2023-05-14T16:22:36.227Z,27.02
2023-05-14T16:25:06.112Z,22.50
2023-05-14T16:27:33.948Z,19.23
2023-05-14T16:30:01.801Z,15.48
2023-05-14T16:32:31.104Z,18.30
2023-05-14T16:34:58.849Z,14.13
2023-05-14T16:37:26.661Z,13.15
2023-05-14T16:39:54.852Z,12.52
2023-05-14T16:42:22.614Z,13.98
2023-05-14T16:44:50.498Z,15.23
2023-05-14T16:47:18.472Z,14.55
2023-05-14T16:49:47.602Z,15.60
2023-05-14T16:52:15.503Z,15.40
2023-05-14T16:54:43.316Z,16.45
2023-05-14T16:57:11.172Z,16.30
2023-05-14T16:59:39.060Z,17.48
2023-05-14T17:02:07.155Z,16.42
2023-05-14T17:07:07.745Z,16.23
2023-05-14T17:09:35.573Z,17.27
2023-05-14T17:12:04.253Z,15.27
2023-05-14T17:14:32.041Z,16.70
2023-05-14T17:16:59.818Z,18.15
2023-05-14T17:19:27.569Z,19.67
2023-05-14T17:21:55.536Z,20.33
2023-05-14T17:24:24.733Z,19.48
2023-05-14T17:26:52.458Z,18.13
2023-05-14T17:29:21.270Z,18.15
2023-05-14T17:31:49.420Z,19.05
2023-05-14T17:34:17.670Z,19.88
2023-05-14T17:36:45.449Z,21.05
2023-05-14T17:39:13.296Z,21.10
2023-05-14T17:41:42.748Z,20.83
2023-05-14T17:44:12.847Z,20.27
2023-05-14T17:46:41.590Z,20.10
2023-05-14T17:49:09.580Z,20.92
2023-05-14T17:51:37.530Z,20.15
2023-05-14T17:54:05.512Z,19.58
2023-05-14T17:56:33.530Z,19.40
2023-05-14T17:59:02.848Z,19.42
2023-05-14T18:01:30.813Z,20.00
2023-05-14T18:03:58.692Z,20.55
2023-05-14T18:06:26.590Z,19.20
2023-05-14T18:08:54.406Z,20.73
2023-05-14T18:11:22.144Z,19.42
2023-05-14T18:13:49.994Z,21.15
2023-05-14T18:16:19.979Z,20.02
2023-05-14T18:18:47.991Z,22.17
2023-05-14T18:21:15.996Z,21.45
2023-05-14T18:23:43.796Z,22.50
2023-05-14T18:26:11.947Z,21.23
2023-05-14T18:28:39.976Z,22.23
2023-05-14T18:31:07.856Z,22.23
2023-05-14T18:33:37.019Z,22.58
2023-05-14T18:36:05.617Z,22.13
2023-05-14T18:38:33.523Z,21.50
2023-05-14T18:41:01.449Z,21.75
2023-05-14T18:43:29.250Z,23.75
2023-05-14T18:45:57.088Z,23.02
2023-05-14T18:48:25.351Z,22.00
2023-05-14T18:50:54.678Z,23.52
2023-05-14T18:53:22.593Z,22.13
2023-05-14T18:55:50.846Z,22.40
2023-05-14T18:58:18.731Z,23.63
2023-05-14T19:00:47.602Z,21.80
2023-05-14T19:03:15.749Z,24.08
2023-05-14T19:05:44.113Z,22.77
2023-05-14T19:08:13.517Z,21.92
2023-05-14T19:10:41.926Z,21.67
2023-05-14T19:13:09.991Z,22.20
2023-05-14T19:15:39.281Z,22.45
2023-05-14T19:18:07.953Z,22.65
2023-05-14T19:20:36.784Z,24.63
2023-05-14T19:23:04.841Z,23.30
2023-05-14T19:25:34.914Z,23.10
2023-05-14T19:28:03.720Z,24.88
2023-05-14T19:30:32.161Z,23.88
2023-05-14T19:33:00.082Z,27.55
2023-05-14T19:35:28.220Z,27.17
2023-05-14T19:37:56.426Z,27.73
2023-05-14T19:40:24.248Z,28.65
2023-05-14T19:42:53.431Z,26.67
2023-05-14T19:45:23.460Z,25.00
2023-05-14T19:47:52.372Z,24.38
2023-05-14T19:50:20.559Z,22.95
2023-05-14T19:52:48.891Z,23.95
2023-05-14T19:55:17.584Z,24.05
2023-05-14T19:57:46.469Z,22.13
2023-05-14T20:00:16.894Z,21.35
2023-05-14T20:02:47.842Z,20.13
2023-05-14T20:05:16.824Z,21.80
2023-05-14T20:07:44.821Z,21.65
2023-05-14T20:10:12.787Z,22.63
2023-05-14T20:12:41.093Z,25.08
2023-05-14T20:15:10.207Z,23.20
2023-05-14T20:17:40.113Z,24.83
2023-05-14T20:20:09.877Z,23.23
2023-05-14T20:22:38.243Z,24.08
2023-05-14T20:25:07.003Z,24.63
2023-05-14T20:27:34.885Z,23.15
2023-05-14T20:30:02.837Z,25.13
2023-05-14T20:32:30.618Z,24.02
2023-05-14T20:35:01.873Z,23.58
2023-05-14T20:37:30.924Z,25.05
2023-05-14T20:39:59.090Z,23.10
2023-05-14T20:42:27.711Z,24.02
2023-05-14T20:44:55.748Z,22.48
2023-05-14T20:47:30.386Z,23.80
2023-05-14T20:49:59.949Z,23.30
2023-05-14T20:52:27.970Z,23.35
2023-05-14T20:54:55.818Z,22.15
2023-05-14T20:57:23.582Z,22.55
2023-05-14T20:59:52.234Z,24.35
2023-05-14T21:02:20.071Z,23.52
2023-05-14T21:04:48.070Z,24.33
2023-05-14T21:07:17.428Z,24.95
2023-05-14T21:09:50.679Z,23.98
2023-05-14T21:12:18.760Z,24.33
2023-05-14T21:14:46.629Z,23.05
2023-05-14T21:17:14.449Z,23.30
2023-05-14T21:19:42.222Z,23.58
2023-05-14T21:22:09.956Z,25.00
2023-05-14T21:24:39.201Z,26.45
2023-05-14T21:27:07.165Z,26.13
2023-05-14T21:29:34.943Z,25.95
2023-05-14T21:32:02.930Z,26.20
2023-05-14T21:34:32.023Z,24.73
2023-05-14T21:37:00.014Z,25.92
2023-05-14T21:39:28.026Z,25.30
2023-05-14T21:41:57.267Z,24.48
2023-05-14T21:44:25.269Z,26.40
2023-05-14T21:46:53.028Z,26.73
2023-05-14T21:49:20.904Z,25.35
2023-05-14T21:51:52.819Z,26.90
2023-05-14T21:54:20.931Z,27.70
2023-05-14T21:56:48.911Z,26.65
2023-05-14T21:59:18.162Z,26.00
2023-05-14T22:02:05.701Z,26.17
2023-05-14T22:04:35.247Z,26.48
2023-05-14T22:07:03.380Z,26.98
2023-05-14T22:09:31.346Z,25.30
2023-05-14T22:11:59.232Z,24.48
2023-05-14T22:14:28.464Z,24.75
2023-05-14T22:16:56.739Z,26.77
2023-05-14T22:19:25.751Z,25.17
2023-05-14T22:21:53.565Z,25.25
2023-05-14T22:24:21.658Z,25.90
2023-05-14T22:26:49.433Z,26.05
2023-05-14T22:29:17.185Z,25.45
2023-05-14T22:31:46.317Z,27.10
2023-05-14T22:34:14.249Z,27.25
2023-05-14T22:36:42.005Z,27.15
2023-05-14T22:39:11.410Z,27.67
2023-05-14T22:41:41.179Z,26.95
2023-05-14T22:44:08.980Z,25.60
2023-05-14T22:46:36.903Z,27.80
2023-05-14T22:49:06.023Z,27.15
2023-05-14T22:51:33.773Z,27.27
2023-05-14T22:54:01.590Z,27.05
2023-05-14T22:56:29.519Z,27.50
2023-05-14T22:58:57.553Z,27.92
2023-05-14T23:01:25.397Z,28.45
2023-05-14T23:03:53.200Z,25.80
2023-05-14T23:06:22.326Z,28.98
2023-05-14T23:08:50.075Z,29.42
2023-05-14T23:11:18.127Z,27.90
2023-05-14T23:13:46.151Z,27.50
2023-05-14T23:16:14.215Z,28.08
2023-05-14T23:18:42.286Z,27.02
2023-05-14T23:21:10.172Z,28.85
2023-05-14T23:23:39.286Z,26.60
2023-05-14T23:26:07.321Z,27.25
2023-05-14T23:28:35.033Z,30.23
2023-05-14T23:31:03.062Z,29.42
2023-05-14T23:33:30.923Z,30.15
2023-05-14T23:35:58.980Z,30.90
2023-05-14T23:38:26.730Z,30.13
2023-05-14T23:40:55.849Z,29.48
2023-05-14T23:43:23.667Z,30.33
2023-05-14T23:45:51.500Z,29.00
2023-05-14T23:48:19.302Z,28.80
2023-05-14T23:50:47.081Z,31.95
2023-05-14T23:53:14.844Z,30.05
2023-05-14T23:55:42.698Z,31.00
2023-05-14T23:58:11.952Z,30.33
